createdAt,value
2022-10-22T00:00:11.353Z,-1.00
2022-10-22T00:02:38.760Z,-1.00
2022-10-22T00:05:06.142Z,-1.10
2022-10-22T00:07:33.314Z,-1.10
2022-10-22T00:10:00.321Z,-1.10
2022-10-22T00:12:27.676Z,-1.20
2022-10-22T00:14:54.728Z,-1.20
2022-10-22T00:17:21.676Z,-1.20
2022-10-22T00:19:48.689Z,-1.30
2022-10-22T00:22:15.637Z,-1.30
2022-10-22T00:24:42.849Z,-1.30
2022-10-22T00:27:11.903Z,-1.30
2022-10-22T00:29:38.923Z,-1.30
2022-10-22T00:32:07.257Z,-1.40
2022-10-22T00:34:34.444Z,-1.40
2022-10-22T00:37:01.418Z,-1.40
2022-10-22T00:39:29.376Z,-1.50
2022-10-22T00:41:57.693Z,-1.50
2022-10-22T00:45:02.099Z,-1.50
2022-10-22T00:47:32.913Z,-1.40
2022-10-22T00:50:01.212Z,-1.50
2022-10-22T00:52:29.043Z,-1.50
2022-10-22T00:54:57.300Z,-1.60
2022-10-22T00:57:24.559Z,-1.60
2022-10-22T00:59:51.629Z,-1.60
2022-10-22T01:02:18.867Z,-1.60
2022-10-22T01:04:45.990Z,-1.60
2022-10-22T01:07:20.238Z,-1.60
2022-10-22T01:10:17.607Z,-1.70
2022-10-22T01:12:55.825Z,-1.60
2022-10-22T01:15:31.123Z,-1.50
2022-10-22T01:18:24.397Z,-1.50
2022-10-22T01:21:26.423Z,-1.40
2022-10-22T01:24:09.604Z,-1.30
2022-10-22T01:27:16.591Z,-1.30
2022-10-22T01:29:53.070Z,-1.30
2022-10-22T01:32:23.772Z,-1.40
2022-10-22T01:34:55.324Z,-1.40
2022-10-22T01:37:25.877Z,-1.40
2022-10-22T01:39:54.266Z,-1.40
2022-10-22T01:42:21.600Z,-1.50
2022-10-22T01:44:50.221Z,-1.50
2022-10-22T01:47:38.695Z,-1.60
2022-10-22T01:50:35.981Z,-1.60
2022-10-22T01:53:21.118Z,-1.60
2022-10-22T01:55:56.949Z,-1.60
2022-10-22T01:58:33.507Z,-1.70
2022-10-22T02:01:11.132Z,-1.70
2022-10-22T02:03:56.608Z,-1.70
2022-10-22T02:06:27.328Z,-1.70
2022-10-22T02:08:55.844Z,-1.80
2022-10-22T02:11:22.948Z,-1.70
2022-10-22T02:13:53.653Z,-1.80
2022-10-22T02:16:29.403Z,-1.80
2022-10-22T02:18:59.867Z,-1.80
2022-10-22T02:21:27.850Z,-1.80
2022-10-22T02:23:54.987Z,-1.90
2022-10-22T02:26:39.058Z,-1.80
2022-10-22T02:29:17.687Z,-1.80
2022-10-22T02:31:47.997Z,-1.90
2022-10-22T02:34:21.452Z,-1.90
2022-10-22T02:36:50.417Z,-1.90
2022-10-22T02:39:19.907Z,-1.80
2022-10-22T02:41:47.800Z,-1.80
2022-10-22T02:44:14.948Z,-1.70
2022-10-22T02:46:43.667Z,-1.70
2022-10-22T02:49:10.613Z,-1.70
2022-10-22T02:51:37.598Z,-1.70
2022-10-22T02:54:05.266Z,-1.70
2022-10-22T02:56:32.793Z,-1.80
2022-10-22T02:58:59.738Z,-1.80
2022-10-22T03:01:26.735Z,-1.70
2022-10-22T03:03:53.877Z,-1.60
2022-10-22T03:06:21.010Z,-1.70
2022-10-22T03:08:48.077Z,-1.70
2022-10-22T03:11:15.126Z,-1.70
2022-10-22T03:13:42.071Z,-1.70
2022-10-22T03:16:09.221Z,-1.70
2022-10-22T03:18:36.377Z,-1.70
2022-10-22T03:21:26.615Z,-1.60
2022-10-22T03:23:54.508Z,-1.60
2022-10-22T03:26:22.130Z,-1.50
2022-10-22T03:28:49.180Z,-1.50
2022-10-22T03:31:16.138Z,-1.50
2022-10-22T03:33:43.088Z,-1.40
2022-10-22T03:36:10.346Z,-1.30
2022-10-22T03:38:39.648Z,-1.30
2022-10-22T03:41:06.950Z,-1.40
2022-10-22T03:43:37.770Z,-1.40
2022-10-22T03:46:04.799Z,-1.30
2022-10-22T03:48:31.793Z,-1.30
2022-10-22T03:50:58.802Z,-1.10
2022-10-22T03:53:25.810Z,-1.00
2022-10-22T03:55:52.800Z,-1.00
2022-10-22T03:58:19.746Z,-1.00
2022-10-22T04:00:46.715Z,-1.00
2022-10-22T04:03:13.714Z,-1.00
2022-10-22T04:05:40.702Z,-0.90
2022-10-22T04:08:07.618Z,-0.90
2022-10-22T04:10:34.543Z,-0.80
2022-10-22T04:13:01.530Z,-0.70
2022-10-22T04:15:29.142Z,-0.70
2022-10-22T04:17:56.212Z,-0.70
2022-10-22T04:20:23.167Z,-0.50
2022-10-22T04:22:50.175Z,-0.40
2022-10-22T04:25:17.217Z,-0.50
2022-10-22T04:27:44.287Z,-0.50
2022-10-22T04:30:11.846Z,-0.60
2022-10-22T04:32:38.780Z,-0.60
2022-10-22T04:35:06.098Z,-0.50
2022-10-22T04:37:33.093Z,-0.60
2022-10-22T04:40:00.098Z,-0.70
2022-10-22T04:42:27.120Z,-0.70
2022-10-22T04:44:54.043Z,-0.60
2022-10-22T04:47:21.088Z,-0.60
2022-10-22T04:49:48.006Z,-0.60
2022-10-22T04:52:14.954Z,-0.60
2022-10-22T04:54:42.014Z,-0.60
2022-10-22T04:57:08.989Z,-0.50
2022-10-22T04:59:35.987Z,-0.50
2022-10-22T05:02:02.987Z,-0.40
2022-10-22T05:04:29.905Z,-0.40
2022-10-22T05:06:56.828Z,-0.40
2022-10-22T05:09:23.784Z,-0.50
2022-10-22T05:11:52.797Z,-0.40
2022-10-22T05:14:24.839Z,-0.50
2022-10-22T05:16:52.488Z,-0.50
2022-10-22T05:19:26.021Z,-0.40
2022-10-22T05:21:55.092Z,-0.40
2022-10-22T05:24:22.449Z,-0.30
2022-10-22T05:26:51.054Z,-0.20
2022-10-22T05:29:18.915Z,-0.20
2022-10-22T05:31:46.263Z,-0.20
2022-10-22T05:34:13.839Z,-0.30
2022-10-22T05:36:41.249Z,-0.40
2022-10-22T05:39:08.244Z,-0.50
2022-10-22T05:41:35.912Z,-0.50
2022-10-22T05:44:03.269Z,-0.60
2022-10-22T05:46:33.492Z,-0.60
2022-10-22T05:49:03.124Z,-0.50
2022-10-22T05:51:32.221Z,-0.50
2022-10-22T05:54:01.718Z,-0.40
2022-10-22T05:56:32.081Z,-0.20
2022-10-22T05:58:59.274Z,-0.20
2022-10-22T06:01:29.526Z,-0.40
2022-10-22T06:03:59.325Z,-0.60
2022-10-22T06:06:53.023Z,-0.60
2022-10-22T06:09:25.084Z,-0.60
2022-10-22T06:11:52.670Z,-0.60
2022-10-22T06:14:20.582Z,-0.60
2022-10-22T06:16:48.237Z,-0.50
2022-10-22T06:19:17.220Z,-0.40
2022-10-22T06:21:44.223Z,-0.40
2022-10-22T06:24:11.742Z,-0.60
2022-10-22T06:26:39.341Z,-0.30
2022-10-22T06:29:06.355Z,0.10
2022-10-22T06:31:36.906Z,0.30
2022-10-22T06:34:10.994Z,0.90
2022-10-22T06:36:38.509Z,1.70
2022-10-22T06:39:06.051Z,2.70
2022-10-22T06:41:33.179Z,3.50
2022-10-22T06:44:00.338Z,4.10
2022-10-22T06:46:27.529Z,4.70
2022-10-22T06:48:59.257Z,5.30
2022-10-22T06:51:27.579Z,5.60
2022-10-22T06:53:56.305Z,5.90
2022-10-22T06:56:25.306Z,6.40
2022-10-22T06:58:54.275Z,6.50
2022-10-22T07:01:26.143Z,5.90
2022-10-22T07:03:54.150Z,5.40
2022-10-22T07:06:22.719Z,5.10
2022-10-22T07:08:50.544Z,4.40
2022-10-22T07:11:20.198Z,3.80
2022-10-22T07:13:48.286Z,3.50
2022-10-22T07:16:16.151Z,3.20
2022-10-22T07:18:43.702Z,3.10
2022-10-22T07:21:11.907Z,3.10
2022-10-22T07:23:39.394Z,3.20
2022-10-22T07:26:08.597Z,4.00
2022-10-22T07:28:41.260Z,5.60
2022-10-22T07:31:10.618Z,7.20
2022-10-22T07:33:38.530Z,8.50
2022-10-22T07:36:09.127Z,9.30
2022-10-22T07:38:36.748Z,8.90
2022-10-22T07:41:04.363Z,9.50
2022-10-22T07:43:31.295Z,10.60
2022-10-22T07:45:59.703Z,11.60
2022-10-22T07:48:26.724Z,12.50
2022-10-22T07:50:53.724Z,13.10
2022-10-22T07:53:21.490Z,13.30
2022-10-22T07:55:50.140Z,13.20
2022-10-22T07:58:18.848Z,12.90
2022-10-22T08:00:46.360Z,11.50
2022-10-22T08:03:15.439Z,9.80
2022-10-22T08:05:45.950Z,8.40
2022-10-22T08:08:15.101Z,7.40
2022-10-22T08:10:42.405Z,6.50
2022-10-22T08:13:09.523Z,6.00
2022-10-22T08:15:36.700Z,5.50
2022-10-22T08:18:03.803Z,5.20
2022-10-22T08:20:30.775Z,4.90
2022-10-22T08:22:58.475Z,4.80
2022-10-22T08:25:25.856Z,4.70
2022-10-22T08:27:52.950Z,4.70
2022-10-22T08:30:20.078Z,4.70
2022-10-22T08:32:49.252Z,4.60
2022-10-22T08:35:18.708Z,4.60
2022-10-22T08:37:45.749Z,4.70
2022-10-22T08:40:23.219Z,4.60
2022-10-22T08:42:59.111Z,4.60
2022-10-22T08:45:31.131Z,4.60
2022-10-22T08:48:30.600Z,4.60
2022-10-22T08:50:58.466Z,4.70
2022-10-22T08:53:44.757Z,4.70
2022-10-22T08:56:13.604Z,4.80
2022-10-22T08:59:02.247Z,4.80
2022-10-22T09:01:48.064Z,4.70
2022-10-22T09:04:33.793Z,4.70
2022-10-22T09:07:01.000Z,4.70
2022-10-22T09:09:33.182Z,4.70
2022-10-22T09:12:01.141Z,4.70
2022-10-22T09:14:29.945Z,4.70
2022-10-22T09:17:34.176Z,4.70
2022-10-22T09:20:13.157Z,4.80
2022-10-22T09:22:57.177Z,4.80
2022-10-22T09:25:27.666Z,4.80
2022-10-22T09:27:58.787Z,4.90
2022-10-22T09:30:31.651Z,5.00
2022-10-22T09:33:06.056Z,5.00
2022-10-22T09:35:47.170Z,5.10
2022-10-22T09:38:16.110Z,5.20
2022-10-22T09:40:51.934Z,5.30
2022-10-22T09:43:19.758Z,5.30
2022-10-22T09:45:48.005Z,5.40
2022-10-22T09:48:14.987Z,5.50
2022-10-22T09:50:55.018Z,5.70
2022-10-22T09:53:59.237Z,5.80
2022-10-22T09:56:35.951Z,5.90
2022-10-22T09:59:03.460Z,5.90
2022-10-22T10:01:36.060Z,5.90
2022-10-22T10:04:09.560Z,6.10
2022-10-22T10:06:42.012Z,6.00
2022-10-22T10:09:18.412Z,6.10
2022-10-22T10:12:20.436Z,6.10
2022-10-22T10:15:16.529Z,6.20
2022-10-22T10:17:58.122Z,6.10
2022-10-22T10:20:30.738Z,6.10
2022-10-22T10:23:07.303Z,6.40
2022-10-22T10:25:42.682Z,6.40
2022-10-22T10:28:15.685Z,6.60
2022-10-22T10:30:55.015Z,6.60
2022-10-22T10:33:44.031Z,6.70
2022-10-22T10:36:19.827Z,6.80
2022-10-22T10:39:17.609Z,6.70
2022-10-22T10:42:09.125Z,6.80
2022-10-22T10:44:36.029Z,6.70
2022-10-22T10:47:16.941Z,6.70
2022-10-22T10:49:44.448Z,6.80
2022-10-22T10:52:52.379Z,6.80
2022-10-22T10:55:25.288Z,6.90
2022-10-22T10:58:17.797Z,6.80
2022-10-22T11:01:12.808Z,6.70
2022-10-22T11:04:12.042Z,6.70
2022-10-22T11:06:39.996Z,6.60
2022-10-22T11:09:24.797Z,6.60
2022-10-22T11:12:03.259Z,6.60
2022-10-22T11:14:41.900Z,6.60
2022-10-22T11:17:16.058Z,6.60
2022-10-22T11:19:53.786Z,6.70
2022-10-22T11:22:34.223Z,6.70
2022-10-22T11:25:13.315Z,6.70
2022-10-22T11:27:57.521Z,6.70
2022-10-22T11:30:33.501Z,6.70
2022-10-22T11:33:07.282Z,6.80
2022-10-22T11:35:38.712Z,6.90
2022-10-22T11:38:07.636Z,6.90
2022-10-22T11:40:39.339Z,6.90
2022-10-22T11:43:09.139Z,7.00
2022-10-22T11:45:41.456Z,6.90
2022-10-22T11:48:11.147Z,7.00
2022-10-22T11:51:00.840Z,7.00
2022-10-22T11:53:34.213Z,7.00
2022-10-22T11:56:07.436Z,7.10
2022-10-22T11:58:44.005Z,7.20
2022-10-22T12:01:11.144Z,7.20
2022-10-22T12:03:46.589Z,7.10
2022-10-22T12:06:15.648Z,7.10
2022-10-22T12:08:49.030Z,7.10
2022-10-22T12:11:38.514Z,7.20
2022-10-22T12:14:19.700Z,7.30
2022-10-22T12:16:56.132Z,7.30
2022-10-22T12:19:23.722Z,7.50
2022-10-22T12:21:57.943Z,7.50
2022-10-22T12:24:29.532Z,7.70
2022-10-22T12:26:56.547Z,7.80
2022-10-22T12:29:25.590Z,7.80
2022-10-22T12:31:52.758Z,7.90
2022-10-22T12:34:23.589Z,8.00
2022-10-22T12:36:52.338Z,8.00
2022-10-22T12:39:26.736Z,8.00
2022-10-22T12:41:54.765Z,8.00
2022-10-22T12:44:21.760Z,7.90
2022-10-22T12:46:53.058Z,7.80
2022-10-22T12:49:35.717Z,7.80
2022-10-22T12:52:10.938Z,7.90
2022-10-22T12:54:40.680Z,8.00
2022-10-22T12:57:16.353Z,7.90
2022-10-22T12:59:49.709Z,7.80
2022-10-22T13:02:25.580Z,7.70
2022-10-22T13:05:16.587Z,7.80
2022-10-22T13:07:49.492Z,7.80
2022-10-22T13:10:31.850Z,7.80
2022-10-22T13:12:59.220Z,7.90
2022-10-22T13:15:29.061Z,7.90
2022-10-22T13:18:27.022Z,7.90
2022-10-22T13:20:57.397Z,8.00
2022-10-22T13:23:26.808Z,7.90
2022-10-22T13:26:18.131Z,7.90
2022-10-22T13:28:54.187Z,7.90
2022-10-22T13:31:31.922Z,7.90
2022-10-22T13:34:11.834Z,8.00
2022-10-22T13:36:40.904Z,8.00
2022-10-22T13:39:20.051Z,8.00
2022-10-22T13:41:47.033Z,7.90
2022-10-22T13:44:13.971Z,8.00
2022-10-22T13:46:42.962Z,7.90
2022-10-22T13:49:19.128Z,7.90
2022-10-22T13:51:46.938Z,7.80
2022-10-22T13:54:22.943Z,7.80
2022-10-22T13:56:50.188Z,7.90
2022-10-22T13:59:19.772Z,7.90
2022-10-22T14:01:49.871Z,7.90
2022-10-22T14:04:16.792Z,7.90
2022-10-22T14:06:43.936Z,7.90
2022-10-22T14:09:15.237Z,7.80
2022-10-22T14:11:43.146Z,7.90
2022-10-22T14:14:14.205Z,7.90
2022-10-22T14:16:41.615Z,7.90
2022-10-22T14:19:17.522Z,7.80
2022-10-22T14:21:44.789Z,7.70
2022-10-22T14:24:13.241Z,7.70
2022-10-22T14:26:40.900Z,7.90
2022-10-22T14:29:10.324Z,8.60
2022-10-22T14:31:43.928Z,9.20
2022-10-22T14:34:13.835Z,9.60
2022-10-22T14:36:43.770Z,9.70
2022-10-22T14:39:11.490Z,9.40
2022-10-22T14:41:38.695Z,9.40
2022-10-22T14:44:05.670Z,9.30
2022-10-22T14:46:32.714Z,9.20
2022-10-22T14:48:59.665Z,9.00
2022-10-22T14:51:26.658Z,8.90
2022-10-22T14:53:53.590Z,8.40
2022-10-22T14:56:23.335Z,8.00
2022-10-22T14:58:50.941Z,7.60
2022-10-22T15:01:18.254Z,7.20
2022-10-22T15:03:45.269Z,7.00
2022-10-22T15:06:12.239Z,6.80
2022-10-22T15:08:39.535Z,6.60
2022-10-22T15:11:10.288Z,6.30
2022-10-22T15:13:37.369Z,6.20
2022-10-22T15:16:09.260Z,6.00
2022-10-22T15:18:36.347Z,5.80
2022-10-22T15:21:06.460Z,5.70
2022-10-22T15:23:33.997Z,5.50
2022-10-22T15:26:01.068Z,5.40
2022-10-22T15:28:28.059Z,5.30
2022-10-22T15:31:00.536Z,5.20
2022-10-22T15:33:28.707Z,5.00
2022-10-22T15:35:57.110Z,4.90
2022-10-22T15:41:05.438Z,4.70
2022-10-22T15:43:33.881Z,4.60
2022-10-22T15:46:11.780Z,4.60
2022-10-22T15:48:39.770Z,4.50
2022-10-22T15:51:17.854Z,4.40
2022-10-22T15:53:50.743Z,4.30
2022-10-22T15:56:17.731Z,4.30
2022-10-22T15:58:44.703Z,4.30
2022-10-22T16:01:14.346Z,4.30
2022-10-22T16:03:41.912Z,4.20
2022-10-22T16:06:09.699Z,4.10
2022-10-22T16:08:36.916Z,4.00
2022-10-22T16:11:04.592Z,3.90
2022-10-22T16:13:31.828Z,3.80
2022-10-22T16:15:58.825Z,3.70
2022-10-22T16:18:25.777Z,3.60
2022-10-22T16:20:52.758Z,3.50
2022-10-22T16:23:20.927Z,3.30
2022-10-22T16:25:48.065Z,3.10
2022-10-22T16:28:16.522Z,2.90
2022-10-22T16:30:43.468Z,2.80
2022-10-22T16:33:11.747Z,2.80
2022-10-22T16:35:42.710Z,2.80
2022-10-22T16:38:10.779Z,2.80
2022-10-22T16:40:38.420Z,2.80
2022-10-22T16:43:05.825Z,2.70
2022-10-22T16:45:32.861Z,2.70
2022-10-22T16:47:59.836Z,2.70
2022-10-22T16:50:27.112Z,2.60
2022-10-22T16:52:54.132Z,2.50
2022-10-22T16:55:21.527Z,2.40
2022-10-22T16:57:52.364Z,2.30
2022-10-22T17:00:20.255Z,2.20
2022-10-22T17:02:52.779Z,2.10
2022-10-22T17:05:20.185Z,2.10
2022-10-22T17:07:47.202Z,2.10
2022-10-22T17:10:14.650Z,2.10
2022-10-22T17:12:41.981Z,2.10
2022-10-22T17:15:09.397Z,2.10
2022-10-22T17:17:36.449Z,2.00
2022-10-22T17:20:04.005Z,1.90
2022-10-22T17:22:31.451Z,1.90
2022-10-22T17:25:19.613Z,1.80
2022-10-22T17:27:46.691Z,1.80
2022-10-22T17:30:19.236Z,1.80
2022-10-22T17:32:48.784Z,1.80
2022-10-22T17:35:16.712Z,1.80
2022-10-22T17:37:44.128Z,1.70
2022-10-22T17:40:11.406Z,1.70
2022-10-22T17:42:38.514Z,1.70
2022-10-22T17:45:06.379Z,1.60
2022-10-22T17:47:33.369Z,1.60
2022-10-22T17:50:00.319Z,1.60
2022-10-22T17:52:27.256Z,1.50
2022-10-22T17:54:54.510Z,1.50
2022-10-22T17:57:21.459Z,1.50
2022-10-22T17:59:48.423Z,1.50
2022-10-22T18:02:17.562Z,1.40
2022-10-22T18:04:44.883Z,1.40
2022-10-22T18:07:13.496Z,1.30
2022-10-22T18:09:42.849Z,1.30
2022-10-22T18:12:11.817Z,1.30
2022-10-22T18:14:38.747Z,1.20
2022-10-22T18:17:05.851Z,1.30
2022-10-22T18:19:33.000Z,1.20
2022-10-22T18:22:00.723Z,1.20
2022-10-22T18:24:27.707Z,1.20
2022-10-22T18:26:54.719Z,1.10
2022-10-22T18:29:21.737Z,1.10
2022-10-22T18:31:48.988Z,1.10
2022-10-22T18:34:18.893Z,1.10
2022-10-22T18:36:48.909Z,1.10
2022-10-22T18:39:16.191Z,1.20
2022-10-22T18:41:43.629Z,1.30
2022-10-22T18:44:13.844Z,1.30
2022-10-22T18:46:41.093Z,1.30
2022-10-22T18:49:08.311Z,1.20
2022-10-22T18:51:36.187Z,1.20
2022-10-22T18:54:18.251Z,1.20
2022-10-22T18:56:49.438Z,1.20
2022-10-22T18:59:22.540Z,1.20
2022-10-22T19:01:49.804Z,1.10
2022-10-22T19:04:16.975Z,1.20
2022-10-22T19:06:45.958Z,1.10
2022-10-22T19:09:15.324Z,1.10
2022-10-22T19:11:43.958Z,1.20
2022-10-22T19:14:11.331Z,1.20
2022-10-22T19:16:38.764Z,1.30
2022-10-22T19:19:07.496Z,1.30
2022-10-22T19:21:34.518Z,1.30
2022-10-22T19:24:02.187Z,1.30
2022-10-22T19:26:30.593Z,1.30
2022-10-22T19:28:58.822Z,1.40
2022-10-22T19:31:27.516Z,1.40
2022-10-22T19:33:57.470Z,1.40
2022-10-22T19:36:27.591Z,1.40
2022-10-22T19:38:55.573Z,1.40
2022-10-22T19:41:24.081Z,1.40
2022-10-22T19:43:53.340Z,1.40
2022-10-22T19:46:22.407Z,1.40
2022-10-22T19:48:51.391Z,1.30
2022-10-22T19:51:23.951Z,1.30
2022-10-22T19:53:51.602Z,1.40
2022-10-22T19:56:20.863Z,1.40
2022-10-22T19:58:48.075Z,1.30
2022-10-22T20:01:16.982Z,1.30
2022-10-22T20:03:44.015Z,1.20
2022-10-22T20:06:13.720Z,1.20
2022-10-22T20:08:41.106Z,1.20
2022-10-22T20:11:17.659Z,1.10
2022-10-22T20:13:48.031Z,1.10
2022-10-22T20:16:23.131Z,1.10
2022-10-22T20:18:50.974Z,1.10
2022-10-22T20:21:22.012Z,1.10
2022-10-22T20:23:52.691Z,1.10
2022-10-22T20:26:20.613Z,1.10
2022-10-22T20:28:47.526Z,1.10
2022-10-22T20:31:19.947Z,1.10
2022-10-22T20:33:48.221Z,1.00
2022-10-22T20:36:20.959Z,1.10
2022-10-22T20:38:48.395Z,1.20
2022-10-22T20:41:22.464Z,1.10
2022-10-22T20:43:51.185Z,1.10
2022-10-22T20:46:24.833Z,1.00
2022-10-22T20:48:54.602Z,1.10
2022-10-22T20:51:21.872Z,1.00
2022-10-22T20:53:48.805Z,1.00
2022-10-22T20:56:16.602Z,1.00
2022-10-22T20:58:48.190Z,1.00
2022-10-22T21:01:21.550Z,1.00
2022-10-22T21:03:50.592Z,1.00
2022-10-22T21:06:18.133Z,0.90
2022-10-22T21:08:45.099Z,0.90
2022-10-22T21:11:12.147Z,0.90
2022-10-22T21:13:39.097Z,1.00
2022-10-22T21:16:13.760Z,0.90
2022-10-22T21:18:41.037Z,1.00
2022-10-22T21:21:08.693Z,1.00
2022-10-22T21:23:36.378Z,0.90
2022-10-22T21:26:04.743Z,1.00
2022-10-22T21:28:35.634Z,1.00
2022-10-22T21:31:05.051Z,1.00
2022-10-22T21:33:35.055Z,1.00
2022-10-22T21:36:02.081Z,1.00
2022-10-22T21:38:28.994Z,0.90
2022-10-22T21:40:55.961Z,1.00
2022-10-22T21:43:22.952Z,1.10
2022-10-22T21:45:50.081Z,1.10
2022-10-22T21:48:17.360Z,1.10
2022-10-22T21:50:44.990Z,1.10
2022-10-22T21:53:12.328Z,1.10
2022-10-22T21:55:40.711Z,1.10
2022-10-22T21:58:10.377Z,1.10
2022-10-22T22:00:37.404Z,1.10
2022-10-22T22:03:07.212Z,1.10
2022-10-22T22:05:34.421Z,1.10
2022-10-22T22:08:01.359Z,1.20
2022-10-22T22:10:29.703Z,1.20
2022-10-22T22:12:56.751Z,1.30
2022-10-22T22:15:23.680Z,1.30
2022-10-22T22:17:50.624Z,1.30
2022-10-22T22:20:17.696Z,1.40
2022-10-22T22:22:44.782Z,1.30
2022-10-22T22:25:11.810Z,1.30
2022-10-22T22:27:39.076Z,1.30
2022-10-22T22:30:06.926Z,1.30
2022-10-22T22:32:33.865Z,1.20
2022-10-22T22:35:00.900Z,1.20
2022-10-22T22:37:27.915Z,1.20
2022-10-22T22:39:55.112Z,1.10
2022-10-22T22:42:22.142Z,1.10
2022-10-22T22:44:49.080Z,1.10
2022-10-22T22:47:16.050Z,1.00
2022-10-22T22:49:42.988Z,1.00
2022-10-22T22:52:10.086Z,0.90
2022-10-22T22:54:37.094Z,0.90
2022-10-22T22:57:04.286Z,0.90
2022-10-22T22:59:31.242Z,0.90
2022-10-22T23:01:58.380Z,0.80
2022-10-22T23:04:25.449Z,0.80
2022-10-22T23:06:52.688Z,0.80
2022-10-22T23:11:52.756Z,0.70
2022-10-22T23:14:20.492Z,0.60
2022-10-22T23:16:49.967Z,0.60
2022-10-22T23:19:19.545Z,0.60
2022-10-22T23:21:49.024Z,0.60
2022-10-22T23:24:20.242Z,0.50
2022-10-22T23:26:49.303Z,0.50
2022-10-22T23:29:22.339Z,0.40
2022-10-22T23:31:50.452Z,0.40
2022-10-22T23:34:20.851Z,0.40
2022-10-22T23:36:47.881Z,0.40
2022-10-22T23:39:18.104Z,0.40
2022-10-22T23:41:45.559Z,0.40
2022-10-22T23:44:13.410Z,0.40
2022-10-22T23:46:40.787Z,0.40
2022-10-22T23:49:09.046Z,0.40
2022-10-22T23:51:36.393Z,0.40
2022-10-22T23:54:06.335Z,0.30
2022-10-22T23:56:34.328Z,0.30
2022-10-22T23:59:01.357Z,0.40
